createdAt,value
2023-01-27T00:02:02.794Z,23.57
2023-01-27T00:04:35.672Z,19.20
2023-01-27T00:07:08.613Z,21.23
2023-01-27T00:09:43.719Z,19.70
2023-01-27T00:12:39.080Z,18.23
2023-01-27T00:15:14.853Z,22.93
2023-01-27T00:17:47.614Z,19.63
2023-01-27T00:20:42.754Z,23.93
2023-01-27T00:23:33.995Z,22.43
2023-01-27T00:26:08.766Z,20.87
2023-01-27T00:28:42.521Z,21.93
2023-01-27T00:31:35.232Z,20.60
2023-01-27T00:34:10.218Z,22.13
2023-01-27T00:36:43.311Z,19.17
2023-01-27T00:39:16.350Z,20.90
2023-01-27T00:41:49.279Z,19.13
2023-01-27T00:44:23.991Z,21.03
2023-01-27T00:46:59.285Z,20.77
2023-01-27T00:49:33.343Z,22.57
2023-01-27T00:52:06.071Z,25.20
2023-01-27T00:54:38.780Z,21.80
2023-01-27T00:57:13.627Z,24.03
2023-01-27T00:59:48.029Z,24.07
2023-01-27T01:02:22.220Z,22.53
2023-01-27T01:04:55.003Z,19.77
2023-01-27T01:07:27.838Z,23.03
2023-01-27T01:10:03.709Z,24.97
2023-01-27T01:12:36.494Z,19.67
2023-01-27T01:15:09.621Z,20.57
2023-01-27T01:17:46.206Z,20.87
2023-01-27T01:20:21.548Z,21.53
2023-01-27T01:22:54.364Z,21.90
2023-01-27T01:25:29.221Z,22.00
2023-01-27T01:28:05.158Z,19.27
2023-01-27T01:30:38.535Z,21.03
2023-01-27T01:33:12.776Z,25.93
2023-01-27T01:35:45.438Z,26.93
2023-01-27T01:38:18.173Z,22.03
2023-01-27T01:40:52.870Z,24.63
2023-01-27T01:43:27.744Z,25.33
2023-01-27T01:46:00.862Z,26.47
2023-01-27T01:48:36.091Z,25.53
2023-01-27T01:51:10.825Z,24.00
2023-01-27T01:53:49.361Z,20.63
2023-01-27T01:56:25.472Z,24.73
2023-01-27T01:58:59.659Z,20.70
2023-01-27T02:01:32.583Z,20.00
2023-01-27T02:04:09.518Z,20.67
2023-01-27T02:06:46.891Z,18.60
2023-01-27T02:09:22.582Z,19.67
2023-01-27T02:11:55.696Z,16.63
2023-01-27T02:14:28.587Z,17.90
2023-01-27T02:17:01.769Z,17.80
2023-01-27T02:19:39.209Z,17.17
2023-01-27T02:22:13.882Z,18.37
2023-01-27T02:24:50.564Z,15.17
2023-01-27T02:27:24.855Z,15.97
2023-01-27T02:29:57.758Z,15.53
2023-01-27T02:32:30.573Z,15.83
2023-01-27T02:35:06.039Z,14.00
2023-01-27T02:37:39.091Z,14.00
2023-01-27T02:40:16.726Z,14.63
2023-01-27T02:42:50.785Z,18.57
2023-01-27T02:45:23.654Z,13.53
2023-01-27T02:47:56.641Z,12.43
2023-01-27T02:50:29.580Z,14.27
2023-01-27T02:53:04.691Z,13.30
2023-01-27T02:55:40.369Z,13.70
2023-01-27T02:58:16.321Z,13.53
2023-01-27T03:00:49.491Z,13.17
2023-01-27T03:03:25.281Z,12.87
2023-01-27T03:05:58.172Z,12.57
2023-01-27T03:08:33.697Z,19.77
2023-01-27T03:11:06.622Z,16.60
2023-01-27T03:13:40.857Z,18.23
2023-01-27T03:16:30.848Z,19.23
2023-01-27T03:19:03.539Z,20.63
2023-01-27T03:21:36.423Z,15.80
2023-01-27T03:24:09.213Z,17.67
2023-01-27T03:26:42.100Z,13.00
2023-01-27T03:29:33.947Z,15.60
2023-01-27T03:32:06.758Z,13.23
2023-01-27T03:34:39.682Z,18.60
2023-01-27T03:37:29.587Z,15.30
2023-01-27T03:40:19.855Z,15.30
2023-01-27T03:43:11.107Z,13.63
2023-01-27T03:46:04.738Z,16.37
2023-01-27T03:48:38.125Z,14.53
2023-01-27T03:51:11.570Z,14.27
2023-01-27T03:53:44.365Z,14.93
2023-01-27T03:56:18.297Z,13.87
2023-01-27T03:58:51.586Z,14.90
2023-01-27T04:01:25.904Z,16.30
2023-01-27T04:04:16.175Z,17.33
2023-01-27T04:06:56.431Z,16.40
2023-01-27T04:09:30.532Z,17.93
2023-01-27T04:12:04.364Z,19.23
2023-01-27T04:14:38.647Z,15.27
2023-01-27T04:17:14.009Z,16.40
2023-01-27T04:19:46.931Z,17.10
2023-01-27T04:22:19.734Z,16.07
2023-01-27T04:24:52.565Z,16.40
2023-01-27T04:27:25.572Z,14.90
2023-01-27T04:29:58.203Z,12.47
2023-01-27T04:32:32.369Z,14.37
2023-01-27T04:35:05.746Z,18.13
2023-01-27T04:37:38.842Z,12.60
2023-01-27T04:40:12.336Z,12.93
2023-01-27T04:42:45.149Z,13.20
2023-01-27T04:45:19.963Z,11.53
2023-01-27T04:47:54.281Z,16.93
2023-01-27T04:50:27.191Z,12.03
2023-01-27T04:52:59.919Z,12.93
2023-01-27T04:55:32.827Z,12.63
2023-01-27T04:58:08.374Z,12.80
2023-01-27T05:00:43.573Z,10.87
2023-01-27T05:03:20.160Z,12.30
2023-01-27T05:05:52.952Z,13.50
2023-01-27T05:08:25.756Z,12.53
2023-01-27T05:10:58.565Z,12.17
2023-01-27T05:13:31.662Z,13.60
2023-01-27T05:16:05.523Z,11.63
2023-01-27T05:18:40.357Z,13.47
2023-01-27T05:21:13.986Z,13.10
2023-01-27T05:23:47.151Z,11.87
2023-01-27T05:26:20.630Z,11.00
2023-01-27T05:28:57.024Z,12.70
2023-01-27T05:31:31.389Z,14.73
2023-01-27T05:34:08.046Z,12.07
2023-01-27T05:36:40.865Z,13.87
2023-01-27T05:39:13.691Z,11.30
2023-01-27T05:41:46.420Z,13.47
2023-01-27T05:44:19.242Z,11.33
2023-01-27T05:46:52.066Z,13.70
2023-01-27T05:49:26.185Z,13.17
2023-01-27T05:52:01.827Z,13.73
2023-01-27T05:54:34.571Z,14.20
2023-01-27T05:57:07.783Z,12.70
2023-01-27T05:59:40.575Z,11.80
2023-01-27T06:02:15.496Z,13.67
2023-01-27T06:04:49.682Z,12.70
2023-01-27T06:07:22.688Z,13.43
2023-01-27T06:09:55.558Z,13.03
2023-01-27T06:12:28.345Z,11.93
2023-01-27T06:15:01.105Z,14.57
2023-01-27T06:17:36.701Z,10.80
2023-01-27T06:20:12.030Z,13.67
2023-01-27T06:22:44.922Z,12.70
2023-01-27T06:25:20.217Z,12.53
2023-01-27T06:27:55.056Z,11.03
2023-01-27T06:30:28.085Z,13.10
2023-01-27T06:33:00.899Z,11.23
2023-01-27T06:35:35.709Z,10.87
2023-01-27T06:38:11.313Z,13.43
2023-01-27T06:40:45.503Z,11.97
2023-01-27T06:43:20.373Z,13.37
2023-01-27T06:45:53.109Z,12.43
2023-01-27T06:48:26.398Z,12.17
2023-01-27T06:51:00.824Z,15.30
2023-01-27T06:53:34.788Z,14.70
2023-01-27T06:56:08.083Z,14.20
2023-01-27T06:58:40.959Z,16.23
2023-01-27T07:01:13.940Z,15.10
2023-01-27T07:03:46.919Z,15.33
2023-01-27T07:06:21.277Z,12.90
2023-01-27T07:08:54.833Z,12.67
2023-01-27T07:11:29.362Z,12.67
2023-01-27T07:14:02.999Z,12.77
2023-01-27T07:16:35.798Z,15.90
2023-01-27T07:19:08.708Z,15.40
2023-01-27T07:21:46.320Z,16.57
2023-01-27T07:24:19.182Z,18.13
2023-01-27T07:26:52.115Z,13.10
2023-01-27T07:29:24.985Z,15.63
2023-01-27T07:31:58.014Z,17.40
2023-01-27T07:34:31.053Z,17.83
2023-01-27T07:37:05.590Z,14.13
2023-01-27T07:39:39.051Z,19.93
2023-01-27T07:42:11.780Z,15.23
2023-01-27T07:44:44.642Z,17.37
2023-01-27T07:47:17.485Z,16.67
2023-01-27T07:49:50.415Z,17.80
2023-01-27T07:52:24.912Z,14.93
2023-01-27T07:54:57.749Z,17.67
2023-01-27T07:57:30.511Z,18.13
2023-01-27T08:00:05.819Z,13.50
2023-01-27T08:02:38.657Z,14.33
2023-01-27T08:05:13.953Z,16.13
2023-01-27T08:07:48.097Z,17.77
2023-01-27T08:10:21.073Z,19.97
2023-01-27T08:12:54.017Z,16.27
2023-01-27T08:15:26.914Z,15.57
2023-01-27T08:18:00.333Z,14.70
2023-01-27T08:20:33.437Z,13.47
2023-01-27T08:23:07.635Z,14.10
2023-01-27T08:25:40.351Z,11.00
2023-01-27T08:28:13.271Z,13.90
2023-01-27T08:30:49.149Z,12.87
2023-01-27T08:33:22.757Z,12.30
2023-01-27T08:35:55.518Z,13.33
2023-01-27T08:38:29.672Z,12.07
2023-01-27T08:41:04.087Z,11.17
2023-01-27T08:43:39.345Z,14.63
2023-01-27T08:46:12.574Z,10.87
2023-01-27T08:48:46.323Z,9.83
2023-01-27T08:51:19.177Z,10.07
2023-01-27T08:53:53.347Z,10.17
2023-01-27T08:56:26.191Z,9.87
2023-01-27T08:58:59.038Z,10.03
2023-01-27T09:01:31.891Z,9.27
2023-01-27T09:04:04.833Z,13.53
2023-01-27T09:06:37.776Z,9.83
2023-01-27T09:09:12.518Z,9.77
2023-01-27T09:11:47.275Z,13.03
2023-01-27T09:14:21.019Z,8.40
2023-01-27T09:16:53.771Z,11.50
2023-01-27T09:19:26.691Z,11.50
2023-01-27T09:21:59.814Z,11.47
2023-01-27T09:24:34.273Z,8.70
2023-01-27T09:27:07.246Z,9.27
2023-01-27T09:29:40.285Z,8.27
2023-01-27T09:32:13.005Z,8.50
2023-01-27T09:34:45.951Z,8.87
2023-01-27T09:37:18.759Z,7.80
2023-01-27T09:39:56.034Z,6.87
2023-01-27T09:42:37.963Z,11.00
2023-01-27T09:45:19.384Z,7.43
2023-01-27T09:48:01.120Z,10.33
2023-01-27T09:50:55.232Z,9.93
2023-01-27T09:53:42.941Z,11.57
2023-01-27T09:56:21.592Z,10.97
2023-01-27T09:59:04.757Z,6.43
2023-01-27T10:01:43.023Z,11.40
2023-01-27T10:04:32.029Z,7.87
2023-01-27T10:07:12.833Z,7.97
2023-01-27T10:09:55.211Z,9.03
2023-01-27T10:12:35.939Z,6.33
2023-01-27T10:15:14.069Z,8.37
2023-01-27T10:17:53.327Z,9.57
2023-01-27T10:20:30.650Z,7.90
2023-01-27T10:23:13.059Z,6.43
2023-01-27T10:25:52.129Z,8.87
2023-01-27T10:28:29.560Z,9.27
2023-01-27T10:31:03.063Z,9.10
2023-01-27T10:33:44.740Z,8.20
2023-01-27T10:36:23.499Z,7.67
2023-01-27T10:39:02.170Z,7.97
2023-01-27T10:41:39.111Z,8.87
2023-01-27T10:44:21.944Z,6.23
2023-01-27T10:46:59.528Z,9.80
2023-01-27T10:49:38.207Z,9.50
2023-01-27T10:52:12.475Z,6.97
2023-01-27T10:54:49.038Z,7.50
2023-01-27T10:57:26.282Z,6.27
2023-01-27T11:00:33.913Z,5.10
2023-01-27T11:03:01.661Z,8.67
2023-01-27T11:05:35.732Z,8.37
2023-01-27T11:08:12.658Z,9.53
2023-01-27T11:11:01.446Z,6.37
2023-01-27T11:13:36.950Z,18.93
2023-01-27T11:16:18.791Z,8.43
2023-01-27T11:18:56.747Z,7.10
2023-01-27T11:21:31.892Z,6.03
2023-01-27T11:24:13.066Z,5.17
2023-01-27T11:26:47.623Z,6.90
2023-01-27T11:29:22.868Z,9.53
2023-01-27T11:31:59.775Z,6.67
2023-01-27T11:34:36.613Z,7.17
2023-01-27T11:37:15.338Z,9.57
2023-01-27T11:39:48.404Z,8.80
2023-01-27T11:42:21.283Z,8.07
2023-01-27T11:44:56.156Z,6.80
2023-01-27T11:47:31.651Z,10.83
2023-01-27T11:50:08.200Z,7.63
2023-01-27T11:52:43.544Z,9.40
2023-01-27T11:55:18.493Z,7.93
2023-01-27T11:57:54.195Z,8.17
2023-01-27T12:00:29.728Z,7.57
2023-01-27T12:03:06.567Z,6.97
2023-01-27T12:05:42.581Z,7.07
2023-01-27T12:08:35.524Z,8.87
2023-01-27T12:11:19.439Z,6.30
2023-01-27T12:13:53.392Z,7.20
2023-01-27T12:16:27.895Z,8.83
2023-01-27T12:19:03.717Z,10.77
2023-01-27T12:21:45.222Z,10.07
2023-01-27T12:24:23.876Z,9.00
2023-01-27T12:26:57.491Z,13.27
2023-01-27T12:29:34.414Z,7.43
2023-01-27T12:32:14.638Z,15.00
2023-01-27T12:34:50.633Z,9.53
2023-01-27T12:37:24.431Z,10.90
2023-01-27T12:40:00.587Z,8.23
2023-01-27T12:42:38.519Z,7.13
2023-01-27T12:45:34.898Z,11.20
2023-01-27T12:48:21.230Z,11.20
2023-01-27T12:51:05.961Z,9.10
2023-01-27T12:53:39.940Z,8.97
2023-01-27T12:56:14.525Z,7.67
2023-01-27T12:58:52.251Z,7.93
2023-01-27T13:01:28.791Z,5.37
2023-01-27T13:04:03.991Z,5.33
2023-01-27T13:06:43.586Z,10.10
2023-01-27T13:09:24.854Z,8.40
2023-01-27T13:11:59.531Z,10.93
2023-01-27T13:14:35.788Z,9.00
2023-01-27T13:17:27.314Z,18.60
2023-01-27T13:20:02.772Z,6.80
2023-01-27T13:22:46.537Z,12.27
2023-01-27T13:25:24.870Z,6.27
2023-01-27T13:27:59.959Z,9.73
2023-01-27T13:30:35.952Z,9.53
2023-01-27T13:33:18.359Z,5.23
2023-01-27T13:35:56.492Z,5.33
2023-01-27T13:38:34.715Z,7.33
2023-01-27T13:41:11.429Z,9.87
2023-01-27T13:43:49.908Z,6.37
2023-01-27T13:46:25.236Z,7.77
2023-01-27T13:49:00.058Z,5.93
2023-01-27T13:51:36.962Z,7.77
2023-01-27T13:54:15.570Z,8.00
2023-01-27T13:56:54.902Z,9.83
2023-01-27T13:59:38.525Z,4.27
2023-01-27T14:02:32.230Z,5.73
2023-01-27T14:05:19.852Z,6.07
2023-01-27T14:07:55.977Z,6.00
2023-01-27T14:10:35.352Z,5.87
2023-01-27T14:13:13.972Z,4.70
2023-01-27T14:15:52.011Z,7.13
2023-01-27T14:18:27.184Z,6.17
2023-01-27T14:21:15.007Z,4.43
2023-01-27T14:23:52.038Z,8.60
2023-01-27T14:26:34.307Z,5.17
2023-01-27T14:29:13.275Z,6.50
2023-01-27T14:31:52.731Z,7.03
2023-01-27T14:34:43.475Z,6.20
2023-01-27T14:37:20.962Z,5.97
2023-01-27T14:39:57.971Z,7.23
2023-01-27T14:42:37.365Z,6.63
2023-01-27T14:45:17.754Z,4.53
2023-01-27T14:47:58.235Z,4.57
2023-01-27T14:50:34.710Z,4.37
2023-01-27T14:53:18.234Z,4.40
2023-01-27T14:55:56.741Z,4.90
2023-01-27T14:58:36.964Z,6.27
2023-01-27T15:01:15.554Z,5.43
2023-01-27T15:04:06.104Z,4.27
2023-01-27T15:06:44.292Z,8.23
2023-01-27T15:09:25.859Z,9.87
2023-01-27T15:12:17.104Z,5.50
2023-01-27T15:15:04.820Z,7.33
2023-01-27T15:17:48.405Z,6.03
2023-01-27T15:20:28.760Z,7.97
2023-01-27T15:23:07.042Z,9.90
2023-01-27T15:25:41.513Z,5.97
2023-01-27T15:28:15.731Z,8.07
2023-01-27T15:31:10.420Z,7.47
2023-01-27T15:33:50.133Z,7.53
2023-01-27T15:36:36.472Z,8.43
2023-01-27T15:39:21.957Z,9.63
2023-01-27T15:42:12.325Z,7.90
2023-01-27T15:45:01.380Z,9.13
2023-01-27T15:47:36.331Z,7.13
2023-01-27T15:50:14.537Z,8.53
2023-01-27T15:52:48.650Z,6.60
2023-01-27T15:55:26.760Z,8.23
2023-01-27T15:58:05.913Z,7.00
2023-01-27T16:00:40.007Z,8.60
2023-01-27T16:03:20.653Z,9.37
2023-01-27T16:05:57.206Z,10.10
2023-01-27T16:08:32.995Z,7.57
2023-01-27T16:11:24.469Z,8.33
2023-01-27T16:14:12.149Z,7.57
2023-01-27T16:16:48.285Z,7.00
2023-01-27T16:19:23.757Z,9.20
2023-01-27T16:22:00.730Z,10.50
2023-01-27T16:24:35.721Z,7.70
2023-01-27T16:27:09.811Z,8.17
2023-01-27T16:29:46.317Z,11.80
2023-01-27T16:32:20.249Z,13.73
2023-01-27T16:34:55.435Z,10.03
2023-01-27T16:37:32.788Z,9.00
2023-01-27T16:40:06.878Z,6.53
2023-01-27T16:42:40.968Z,13.10
2023-01-27T16:45:18.756Z,7.87
2023-01-27T16:47:54.300Z,8.43
2023-01-27T16:50:36.424Z,10.27
2023-01-27T16:53:14.475Z,8.10
2023-01-27T16:55:56.653Z,8.93
2023-01-27T16:58:43.908Z,8.23
2023-01-27T17:01:21.808Z,10.27
2023-01-27T17:03:57.882Z,9.13
2023-01-27T17:06:35.659Z,6.97
2023-01-27T17:09:19.866Z,8.07
2023-01-27T17:11:53.767Z,7.67
2023-01-27T17:14:31.736Z,7.30
2023-01-27T17:17:06.939Z,7.13
2023-01-27T17:19:39.904Z,6.07
2023-01-27T17:22:20.360Z,5.57
2023-01-27T17:24:54.741Z,4.27
2023-01-27T17:27:31.634Z,7.37
2023-01-27T17:30:07.506Z,7.17
2023-01-27T17:32:41.630Z,9.40
2023-01-27T17:35:21.615Z,11.80
2023-01-27T17:38:04.904Z,7.67
2023-01-27T17:40:43.351Z,9.57
2023-01-27T17:43:27.641Z,9.23
2023-01-27T17:46:14.123Z,6.03
2023-01-27T17:48:51.456Z,6.60
2023-01-27T17:51:25.921Z,21.57
2023-01-27T17:54:00.980Z,6.23
2023-01-27T17:56:34.765Z,7.73
2023-01-27T17:59:13.441Z,7.47
2023-01-27T18:01:47.575Z,7.73
2023-01-27T18:04:21.401Z,5.83
2023-01-27T18:06:54.289Z,24.30
2023-01-27T18:09:28.959Z,6.27
2023-01-27T18:12:03.130Z,5.83
2023-01-27T18:14:36.529Z,12.53
2023-01-27T18:17:22.340Z,11.07
2023-01-27T18:19:56.181Z,8.20
2023-01-27T18:22:29.113Z,9.47
2023-01-27T18:25:04.153Z,7.47
2023-01-27T18:27:37.740Z,34.27
2023-01-27T18:30:15.998Z,7.37
2023-01-27T18:32:51.302Z,6.77
2023-01-27T18:35:26.801Z,5.30
2023-01-27T18:38:00.370Z,7.30
2023-01-27T18:40:35.397Z,5.40
2023-01-27T18:43:08.763Z,8.63
2023-01-27T18:45:42.166Z,5.27
2023-01-27T18:48:15.760Z,8.60
2023-01-27T18:50:50.896Z,8.00
2023-01-27T18:53:24.995Z,9.27
2023-01-27T18:56:02.101Z,7.77
2023-01-27T18:58:35.095Z,5.93
2023-01-27T19:01:12.502Z,6.77
2023-01-27T19:03:45.422Z,9.50
2023-01-27T19:06:18.342Z,9.13
2023-01-27T19:08:57.870Z,9.53
2023-01-27T19:11:36.564Z,15.67
2023-01-27T19:14:09.610Z,6.57
2023-01-27T19:16:42.559Z,6.47
2023-01-27T19:19:15.781Z,8.40
2023-01-27T19:21:48.706Z,6.00
2023-01-27T19:24:21.525Z,9.50
2023-01-27T19:26:55.670Z,6.37
2023-01-27T19:29:28.551Z,6.77
2023-01-27T19:32:01.412Z,7.83
2023-01-27T19:34:36.170Z,24.90
2023-01-27T19:37:16.087Z,42.60
2023-01-27T19:39:49.078Z,12.97
2023-01-27T19:42:25.695Z,7.67
2023-01-27T19:44:58.817Z,6.97
2023-01-27T19:47:31.871Z,7.53
2023-01-27T19:50:05.219Z,4.97
2023-01-27T19:52:38.197Z,6.33
2023-01-27T19:55:12.891Z,67.13
2023-01-27T19:57:47.574Z,7.97
2023-01-27T20:00:24.823Z,7.23
2023-01-27T20:02:58.034Z,15.07
2023-01-27T20:05:32.146Z,14.33
2023-01-27T20:08:06.099Z,4.80
2023-01-27T20:10:38.810Z,4.50
2023-01-27T20:13:16.293Z,8.67
2023-01-27T20:15:49.254Z,5.90
2023-01-27T20:18:24.006Z,3.90
2023-01-27T20:20:57.007Z,6.33
2023-01-27T20:23:29.815Z,4.27
2023-01-27T20:26:03.332Z,7.57
2023-01-27T20:28:37.579Z,11.00
2023-01-27T20:31:13.772Z,8.57
2023-01-27T20:33:49.859Z,5.47
2023-01-27T20:36:23.505Z,5.07
2023-01-27T20:38:56.209Z,4.70
2023-01-27T20:41:29.059Z,4.77
2023-01-27T20:44:03.195Z,4.87
2023-01-27T20:46:35.992Z,4.93
2023-01-27T20:49:17.379Z,6.70
2023-01-27T20:51:50.337Z,5.97
2023-01-27T20:54:25.750Z,6.60
2023-01-27T20:56:58.818Z,6.07
2023-01-27T20:59:33.084Z,4.37
2023-01-27T21:02:06.254Z,3.90
2023-01-27T21:04:40.128Z,6.50
2023-01-27T21:07:16.236Z,6.43
2023-01-27T21:09:51.405Z,5.27
2023-01-27T21:12:25.093Z,4.03
2023-01-27T21:14:59.390Z,7.60
2023-01-27T21:17:36.835Z,6.40
2023-01-27T21:20:10.364Z,17.47
2023-01-27T21:22:48.068Z,20.77
2023-01-27T21:25:21.121Z,7.37
2023-01-27T21:27:53.880Z,9.60
2023-01-27T21:30:28.450Z,6.83
2023-01-27T21:33:01.301Z,7.77
2023-01-27T21:35:34.120Z,6.17
2023-01-27T21:38:07.110Z,4.70
2023-01-27T21:40:40.344Z,10.37
2023-01-27T21:43:30.676Z,8.83
2023-01-27T21:46:07.956Z,7.27
2023-01-27T21:48:42.561Z,5.83
2023-01-27T21:51:15.841Z,6.67
2023-01-27T21:53:48.640Z,7.33
2023-01-27T21:56:21.398Z,7.90
2023-01-27T21:58:54.220Z,6.37
2023-01-27T22:01:31.353Z,5.60
2023-01-27T22:04:06.917Z,7.60
2023-01-27T22:06:39.908Z,7.27
2023-01-27T22:09:13.876Z,7.03
2023-01-27T22:11:46.864Z,10.53
2023-01-27T22:14:20.809Z,5.07
2023-01-27T22:16:58.730Z,7.47
2023-01-27T22:19:34.609Z,6.20
2023-01-27T22:22:07.905Z,6.30
2023-01-27T22:24:40.979Z,4.50
2023-01-27T22:27:13.769Z,7.27
2023-01-27T22:29:46.750Z,7.63
2023-01-27T22:32:21.226Z,7.87
2023-01-27T22:34:54.168Z,5.80
2023-01-27T22:37:27.024Z,5.40
2023-01-27T22:40:00.029Z,4.60
2023-01-27T22:42:33.071Z,10.90
2023-01-27T22:45:06.398Z,4.93
2023-01-27T22:47:42.474Z,7.00
2023-01-27T22:50:15.207Z,10.30
2023-01-27T22:52:48.201Z,4.13
2023-01-27T22:55:21.080Z,8.33
2023-01-27T22:57:53.788Z,7.20
2023-01-27T23:00:26.967Z,7.33
2023-01-27T23:03:01.886Z,4.50
2023-01-27T23:05:35.086Z,6.90
2023-01-27T23:08:08.112Z,6.80
2023-01-27T23:10:41.001Z,7.07
2023-01-27T23:13:13.916Z,6.97
2023-01-27T23:15:47.060Z,5.47
2023-01-27T23:18:21.293Z,6.50
2023-01-27T23:20:54.248Z,7.57
2023-01-27T23:23:27.542Z,7.07
2023-01-27T23:26:00.177Z,6.60
2023-01-27T23:28:32.830Z,5.93
2023-01-27T23:31:08.956Z,6.43
2023-01-27T23:33:43.589Z,6.53
2023-01-27T23:36:16.701Z,6.03
2023-01-27T23:38:49.454Z,8.30
2023-01-27T23:41:22.981Z,5.77
2023-01-27T23:43:56.571Z,7.80
2023-01-27T23:46:30.334Z,8.10
2023-01-27T23:49:04.386Z,6.80
2023-01-27T23:51:37.391Z,8.70
2023-01-27T23:54:10.270Z,6.60
2023-01-27T23:56:45.946Z,7.13
2023-01-27T23:59:18.704Z,7.00
